Time;durP1;ratioP1;P1;durP2;ratioP2;P2;SDS_P1;SDS_P2;PMS_P1;PMS_P2;Temp;Humidity;BMP_temperature;BMP_pressure;BME280_temperature;BME280_humidity;BME280_pressure;Samples;Min_cycle;Max_cycle;Signal;HPM_P1;HPM_P2
2023/07/22 00:02:19;;;;;;;2.75;2.00;;;;;;;;;;5117587;27;20050;-73
2023/07/22 00:04:45;;;;;;;4.60;2.20;;;;;;;;;;5103770;28;20052;-73
2023/07/22 00:07:11;;;;;;;6.78;2.53;;;;;;;;;;5096316;27;20040;-73
2023/07/22 00:09:38;;;;;;;3.58;2.13;;;;;;;;;;5115893;27;20123;-73
2023/07/22 00:12:04;;;;;;;5.57;2.30;;;;;;;;;;5133823;27;20047;-73
2023/07/22 00:14:31;;;;;;;2.90;2.28;;;;;;;;;;5133931;27;20036;-73
2023/07/22 00:16:57;;;;;;;3.53;2.40;;;;;;;;;;5132221;27;20043;-73
2023/07/22 00:19:23;;;;;;;6.15;2.30;;;;;;;;;;5108938;27;20085;-73
2023/07/22 00:21:49;;;;;;;3.28;1.88;;;;;;;;;;5116206;27;20385;-73
2023/07/22 00:24:15;;;;;;;4.53;2.17;;;;;;;;;;5134975;27;20142;-73
2023/07/22 00:26:42;;;;;;;4.35;2.17;;;;;;;;;;5101694;28;20051;-73
2023/07/22 00:29:08;;;;;;;5.03;2.33;;;;;;;;;;5115416;27;20459;-73
2023/07/22 00:31:34;;;;;;;3.90;2.30;;;;;;;;;;5116173;27;20073;-73
2023/07/22 00:34:00;;;;;;;2.55;2.30;;;;;;;;;;5122351;27;20489;-73
2023/07/22 00:36:27;;;;;;;3.58;2.38;;;;;;;;;;5131028;27;20135;-73
2023/07/22 00:38:53;;;;;;;5.03;2.50;;;;;;;;;;5099356;27;20047;-73
2023/07/22 00:41:19;;;;;;;3.70;2.45;;;;;;;;;;5132273;27;20126;-73
2023/07/22 00:43:45;;;;;;;3.88;2.53;;;;;;;;;;5130487;28;20039;-73
2023/07/22 00:46:11;;;;;;;2.90;2.50;;;;;;;;;;5115990;28;20066;-73
2023/07/22 00:48:38;;;;;;;3.83;2.40;;;;;;;;;;5125589;27;20066;-73
2023/07/22 00:51:04;;;;;;;6.07;2.70;;;;;;;;;;5121156;28;20039;-73
2023/07/22 00:53:31;;;;;;;4.63;2.80;;;;;;;;;;5133618;28;20039;-73
2023/07/22 00:55:57;;;;;;;6.15;2.65;;;;;;;;;;5133790;28;20419;-73
2023/07/22 00:58:23;;;;;;;3.63;2.80;;;;;;;;;;5116856;28;20062;-73
2023/07/22 01:00:49;;;;;;;9.75;2.90;;;;;;;;;;5125423;28;20058;-73
2023/07/22 01:03:15;;;;;;;4.80;3.03;;;;;;;;;;5113761;28;20050;-73
2023/07/22 01:05:41;;;;;;;3.63;2.60;;;;;;;;;;5113145;28;20036;-73
2023/07/22 01:08:07;;;;;;;4.80;2.80;;;;;;;;;;5105385;28;20043;-73
2023/07/22 01:10:33;;;;;;;5.30;2.60;;;;;;;;;;5133405;28;20047;-73
2023/07/22 01:13:00;;;;;;;4.32;2.75;;;;;;;;;;5115648;28;20043;-73
2023/07/22 01:15:26;;;;;;;4.47;2.75;;;;;;;;;;5112714;28;20088;-73
2023/07/22 01:17:52;;;;;;;6.18;3.10;;;;;;;;;;5106437;28;20039;-73
2023/07/22 01:20:19;;;;;;;4.68;3.50;;;;;;;;;;5101159;28;20544;-73
2023/07/22 01:22:54;;;;;;;5.03;2.90;;;;;;;;;;5130657;28;20374;-73
2023/07/22 01:25:24;;;;;;;3.80;2.60;;;;;;;;;;5123163;28;21067;-73
2023/07/22 01:27:53;;;;;;;5.00;3.00;;;;;;;;;;5134376;28;20043;-73
2023/07/22 01:30:19;;;;;;;5.07;2.70;;;;;;;;;;5132773;28;20039;-73
2023/07/22 01:32:46;;;;;;;5.47;2.97;;;;;;;;;;5100985;28;20051;-73
2023/07/22 01:35:13;;;;;;;4.03;2.92;;;;;;;;;;5132218;28;20114;-73
2023/07/22 01:37:40;;;;;;;4.53;2.63;;;;;;;;;;5128165;28;20393;-73
2023/07/22 01:40:12;;;;;;;7.03;2.80;;;;;;;;;;5096467;28;20047;-73
2023/07/22 01:42:42;;;;;;;5.25;2.60;;;;;;;;;;5128945;27;20058;-73
2023/07/22 01:45:09;;;;;;;4.18;2.50;;;;;;;;;;5126149;28;20043;-73
2023/07/22 01:47:35;;;;;;;7.38;2.60;;;;;;;;;;5112797;28;20367;-73
2023/07/22 01:50:02;;;;;;;4.72;2.70;;;;;;;;;;5104706;27;20501;-73
2023/07/22 01:52:28;;;;;;;4.75;2.70;;;;;;;;;;5107529;28;20454;-73
2023/07/22 01:54:54;;;;;;;4.82;3.10;;;;;;;;;;5109685;28;20048;-73
2023/07/22 01:57:20;;;;;;;4.22;2.63;;;;;;;;;;5094770;28;20424;-73
2023/07/22 01:59:46;;;;;;;4.38;3.00;;;;;;;;;;5109278;27;20131;-73
2023/07/22 02:02:12;;;;;;;5.53;2.67;;;;;;;;;;5122760;27;20040;-73
2023/07/22 02:04:38;;;;;;;6.10;2.90;;;;;;;;;;5110210;27;20047;-73
2023/07/22 02:07:05;;;;;;;5.47;2.60;;;;;;;;;;5127989;27;20059;-73
2023/07/22 02:09:32;;;;;;;3.95;2.78;;;;;;;;;;5109177;27;20125;-73
2023/07/22 02:11:59;;;;;;;6.88;3.60;;;;;;;;;;5116573;28;20044;-73
2023/07/22 02:14:25;;;;;;;4.07;2.70;;;;;;;;;;5127250;27;20397;-72
2023/07/22 02:16:51;;;;;;;5.95;3.33;;;;;;;;;;5123517;27;20426;-72
2023/07/22 02:19:17;;;;;;;3.47;2.60;;;;;;;;;;5130255;27;20031;-72
2023/07/22 02:21:43;;;;;;;4.18;2.85;;;;;;;;;;5135322;27;20404;-72
2023/07/22 02:24:10;;;;;;;4.97;3.10;;;;;;;;;;5136490;27;20184;-72
2023/07/22 02:26:36;;;;;;;6.70;2.85;;;;;;;;;;5136311;27;20077;-72
2023/07/22 02:29:03;;;;;;;5.25;3.20;;;;;;;;;;5136375;27;20047;-72
2023/07/22 02:31:29;;;;;;;5.70;2.90;;;;;;;;;;5118535;27;20043;-73
2023/07/22 02:33:55;;;;;;;6.50;3.13;;;;;;;;;;5135470;27;20497;-73
2023/07/22 02:36:21;;;;;;;5.90;3.13;;;;;;;;;;5135271;27;20467;-73
2023/07/22 02:38:47;;;;;;;4.78;2.92;;;;;;;;;;5117514;27;20066;-73
2023/07/22 02:41:13;;;;;;;5.57;3.08;;;;;;;;;;5112452;28;20036;-73
2023/07/22 02:43:40;;;;;;;3.88;2.95;;;;;;;;;;5115917;28;20044;-73
2023/07/22 02:46:09;;;;;;;5.45;3.25;;;;;;;;;;5108116;27;20092;-73
2023/07/22 02:48:36;;;;;;;5.93;3.00;;;;;;;;;;5112815;27;20046;-73
2023/07/22 02:51:06;;;;;;;4.53;2.70;;;;;;;;;;5108269;27;20074;-73
2023/07/22 02:53:33;;;;;;;4.72;3.08;;;;;;;;;;5135518;27;20085;-73
2023/07/22 02:55:59;;;;;;;5.28;3.10;;;;;;;;;;5135224;27;20052;-73
2023/07/22 02:58:25;;;;;;;4.53;3.10;;;;;;;;;;5132885;27;20375;-73
2023/07/22 03:00:52;;;;;;;4.47;3.00;;;;;;;;;;5115705;27;20047;-73
2023/07/22 03:03:18;;;;;;;6.40;3.20;;;;;;;;;;5136129;27;20122;-73
2023/07/22 03:05:45;;;;;;;5.90;3.40;;;;;;;;;;5107072;28;20039;-73
2023/07/22 03:08:11;;;;;;;5.15;3.28;;;;;;;;;;5126365;27;20083;-73
2023/07/22 03:10:37;;;;;;;5.32;3.15;;;;;;;;;;5134479;27;20035;-73
2023/07/22 03:13:03;;;;;;;6.38;2.95;;;;;;;;;;5117703;27;20055;-73
2023/07/22 03:15:29;;;;;;;6.18;3.42;;;;;;;;;;5116070;27;20043;-73
2023/07/22 03:17:55;;;;;;;5.47;3.35;;;;;;;;;;5110552;28;20043;-73
2023/07/22 03:20:23;;;;;;;6.03;3.17;;;;;;;;;;5104038;28;20050;-73
2023/07/22 03:22:49;;;;;;;4.95;3.40;;;;;;;;;;5126527;27;20047;-73
2023/07/22 03:25:19;;;;;;;5.40;3.40;;;;;;;;;;5116557;27;20066;-73
2023/07/22 03:27:45;;;;;;;5.13;3.60;;;;;;;;;;5124670;27;20497;-73
2023/07/22 03:30:14;;;;;;;5.03;3.47;;;;;;;;;;5114792;27;20093;-73
2023/07/22 03:32:42;;;;;;;5.38;3.83;;;;;;;;;;5115223;28;20075;-73
2023/07/22 03:35:11;;;;;;;6.75;3.97;;;;;;;;;;5119307;27;20075;-73
2023/07/22 03:37:38;;;;;;;7.18;4.28;;;;;;;;;;5128509;27;20036;-73
2023/07/22 03:40:14;;;;;;;6.30;3.83;;;;;;;;;;5117841;27;20514;-73
2023/07/22 03:42:40;;;;;;;4.95;3.72;;;;;;;;;;5135604;27;20477;-73
2023/07/22 03:45:09;;;;;;;16.40;4.35;;;;;;;;;;5134868;27;20083;-73
2023/07/22 03:47:35;;;;;;;6.18;4.05;;;;;;;;;;5119094;27;20052;-73
2023/07/22 03:50:01;;;;;;;7.03;3.88;;;;;;;;;;5120808;27;20039;-73
2023/07/22 03:52:27;;;;;;;5.30;3.78;;;;;;;;;;5131936;27;20035;-73
2023/07/22 03:54:53;;;;;;;7.15;3.80;;;;;;;;;;5120469;27;20167;-73
2023/07/22 03:57:19;;;;;;;8.38;4.20;;;;;;;;;;5130761;27;20043;-73
2023/07/22 03:59:45;;;;;;;6.07;3.97;;;;;;;;;;5134125;27;20139;-73
2023/07/22 04:02:11;;;;;;;4.97;3.92;;;;;;;;;;5105922;28;20052;-73
2023/07/22 04:04:37;;;;;;;6.13;3.75;;;;;;;;;;5109605;27;20384;-73
2023/07/22 04:07:07;;;;;;;6.78;4.13;;;;;;;;;;5114266;27;20051;-73
2023/07/22 04:09:33;;;;;;;8.10;4.47;;;;;;;;;;5133294;27;20046;-73
2023/07/22 04:11:59;;;;;;;6.63;4.10;;;;;;;;;;5134005;27;20088;-73
2023/07/22 04:14:25;;;;;;;6.35;4.13;;;;;;;;;;5133971;27;20381;-73
2023/07/22 04:16:52;;;;;;;5.70;4.00;;;;;;;;;;5134706;27;20084;-73
2023/07/22 04:19:18;;;;;;;5.45;3.90;;;;;;;;;;5113044;27;20074;-73
2023/07/22 04:21:44;;;;;;;5.90;4.07;;;;;;;;;;5111682;27;20050;-73
2023/07/22 04:24:13;;;;;;;8.15;4.20;;;;;;;;;;5116362;28;20506;-73
2023/07/22 04:26:39;;;;;;;7.18;4.63;;;;;;;;;;5114213;28;20122;-73
2023/07/22 04:29:05;;;;;;;6.22;4.10;;;;;;;;;;5118333;27;20118;-73
2023/07/22 04:31:31;;;;;;;7.50;4.22;;;;;;;;;;5132955;27;20441;-73
2023/07/22 04:33:58;;;;;;;6.60;4.03;;;;;;;;;;5115401;28;20118;-73
2023/07/22 04:36:24;;;;;;;9.32;4.68;;;;;;;;;;5134115;27;20419;-73
2023/07/22 04:38:50;;;;;;;9.27;4.90;;;;;;;;;;5134443;27;20042;-73
2023/07/22 04:41:16;;;;;;;7.78;5.18;;;;;;;;;;5134308;27;20046;-73
2023/07/22 04:43:42;;;;;;;7.53;4.60;;;;;;;;;;5125337;27;20040;-73
2023/07/22 04:46:08;;;;;;;6.95;4.47;;;;;;;;;;5113421;28;20052;-73
2023/07/22 04:48:36;;;;;;;6.68;4.70;;;;;;;;;;5114016;28;20071;-73
2023/07/22 04:51:02;;;;;;;7.57;4.85;;;;;;;;;;5115816;28;20047;-73
2023/07/22 04:53:29;;;;;;;7.85;5.15;;;;;;;;;;5134411;28;20054;-73
2023/07/22 04:55:55;;;;;;;9.52;5.00;;;;;;;;;;5114864;28;20044;-73
2023/07/22 04:58:21;;;;;;;8.93;5.35;;;;;;;;;;5113669;28;20081;-73
2023/07/22 05:00:48;;;;;;;8.80;5.40;;;;;;;;;;5115374;28;20504;-73
2023/07/22 05:03:14;;;;;;;8.70;5.20;;;;;;;;;;5133597;28;20067;-73
2023/07/22 05:05:40;;;;;;;9.70;5.55;;;;;;;;;;5133989;28;20142;-73
2023/07/22 05:08:08;;;;;;;9.90;5.30;;;;;;;;;;5114178;28;20531;-73
2023/07/22 05:10:34;;;;;;;10.32;5.88;;;;;;;;;;5112525;28;20505;-73
2023/07/22 05:13:00;;;;;;;9.52;5.50;;;;;;;;;;5113048;28;20405;-73
2023/07/22 05:15:26;;;;;;;11.07;6.07;;;;;;;;;;5096721;28;20082;-73
2023/07/22 05:17:52;;;;;;;11.32;6.78;;;;;;;;;;5109565;28;20083;-73
2023/07/22 05:20:18;;;;;;;10.27;6.28;;;;;;;;;;5099122;28;20047;-73
2023/07/22 05:22:44;;;;;;;10.68;6.53;;;;;;;;;;5115009;28;20043;-73
2023/07/22 05:25:10;;;;;;;10.15;6.68;;;;;;;;;;5121643;28;20043;-73
2023/07/22 05:27:36;;;;;;;11.43;6.50;;;;;;;;;;5144369;27;20049;-73
2023/07/22 05:30:03;;;;;;;12.02;7.13;;;;;;;;;;5112937;28;20058;-73
2023/07/22 05:32:30;;;;;;;11.65;6.95;;;;;;;;;;5132965;28;20039;-73
2023/07/22 05:34:56;;;;;;;12.90;7.53;;;;;;;;;;5116260;27;20043;-73
2023/07/22 05:37:22;;;;;;;11.30;6.85;;;;;;;;;;5135342;27;20473;-73
2023/07/22 05:39:49;;;;;;;11.50;6.95;;;;;;;;;;5106664;28;20055;-73
2023/07/22 05:42:15;;;;;;;10.70;7.13;;;;;;;;;;5113248;27;20039;-73
2023/07/22 05:44:41;;;;;;;11.27;6.60;;;;;;;;;;5117539;27;20497;-73
2023/07/22 05:47:07;;;;;;;13.55;6.80;;;;;;;;;;5124347;27;20047;-73
2023/07/22 05:49:33;;;;;;;11.25;7.38;;;;;;;;;;5138590;27;20377;-73
2023/07/22 05:51:59;;;;;;;11.02;7.30;;;;;;;;;;5119874;27;20058;-73
2023/07/22 05:54:25;;;;;;;11.82;7.43;;;;;;;;;;5115446;28;20043;-73
2023/07/22 05:56:51;;;;;;;11.50;7.28;;;;;;;;;;5102899;27;20065;-72
2023/07/22 05:59:17;;;;;;;12.68;7.60;;;;;;;;;;5118479;27;20495;-73
2023/07/22 06:01:44;;;;;;;14.77;7.47;;;;;;;;;;5121460;27;20039;-72
2023/07/22 06:04:10;;;;;;;13.40;7.43;;;;;;;;;;5090017;28;20382;-72
2023/07/22 06:06:36;;;;;;;12.43;7.32;;;;;;;;;;5128339;27;20068;-72
2023/07/22 06:09:02;;;;;;;12.07;7.40;;;;;;;;;;5106987;27;20096;-72
2023/07/22 06:11:28;;;;;;;14.20;8.27;;;;;;;;;;5116894;27;20046;-72
2023/07/22 06:13:54;;;;;;;12.40;7.53;;;;;;;;;;5115216;27;20118;-73
2023/07/22 06:16:20;;;;;;;11.65;7.50;;;;;;;;;;5125665;27;20071;-72
2023/07/22 06:18:46;;;;;;;16.45;8.65;;;;;;;;;;5130271;27;20111;-73
2023/07/22 06:21:13;;;;;;;11.77;7.30;;;;;;;;;;5125920;27;20070;-72
2023/07/22 06:23:39;;;;;;;13.57;8.18;;;;;;;;;;5125406;27;20452;-72
2023/07/22 06:26:05;;;;;;;9.32;6.70;;;;;;;;;;5135900;27;20043;-72
2023/07/22 06:28:31;;;;;;;13.02;7.60;;;;;;;;;;5099350;27;20044;-73
2023/07/22 06:30:57;;;;;;;11.93;7.13;;;;;;;;;;5121543;27;20039;-72
2023/07/22 06:33:23;;;;;;;11.77;8.00;;;;;;;;;;5108640;27;20073;-72
2023/07/22 06:35:49;;;;;;;11.18;7.45;;;;;;;;;;5133008;27;20051;-73
2023/07/22 06:38:15;;;;;;;12.40;7.43;;;;;;;;;;5108080;28;20066;-72
2023/07/22 06:40:41;;;;;;;12.90;7.43;;;;;;;;;;5115408;27;20062;-72
2023/07/22 06:43:07;;;;;;;14.35;7.68;;;;;;;;;;5115627;27;20047;-72
2023/07/22 06:45:33;;;;;;;14.77;8.35;;;;;;;;;;5115701;27;20521;-72
2023/07/22 06:48:00;;;;;;;12.27;8.00;;;;;;;;;;5091369;27;20043;-72
2023/07/22 06:50:26;;;;;;;13.13;7.78;;;;;;;;;;5117695;27;20058;-72
2023/07/22 06:52:52;;;;;;;13.07;7.53;;;;;;;;;;5119107;27;20351;-72
2023/07/22 06:55:18;;;;;;;15.88;8.60;;;;;;;;;;5080696;28;20044;-72
2023/07/22 06:57:45;;;;;;;13.05;7.53;;;;;;;;;;5110309;27;20047;-72
2023/07/22 07:00:11;;;;;;;11.32;7.38;;;;;;;;;;5106807;27;20090;-72
2023/07/22 07:02:37;;;;;;;12.25;7.85;;;;;;;;;;5114904;27;20134;-72
2023/07/22 07:05:04;;;;;;;13.18;7.88;;;;;;;;;;5135703;27;20482;-72
2023/07/22 07:07:30;;;;;;;16.67;8.68;;;;;;;;;;5134843;27;20492;-72
2023/07/22 07:09:56;;;;;;;14.95;8.20;;;;;;;;;;5131580;27;20122;-72
2023/07/22 07:12:22;;;;;;;14.07;7.30;;;;;;;;;;5116364;27;20035;-73
2023/07/22 07:14:50;;;;;;;15.52;8.25;;;;;;;;;;5096788;28;20138;-73
2023/07/22 07:17:16;;;;;;;14.88;8.05;;;;;;;;;;5114962;28;20082;-73
2023/07/22 07:19:42;;;;;;;16.60;8.38;;;;;;;;;;5113358;27;20054;-77
2023/07/22 07:22:08;;;;;;;13.88;8.23;;;;;;;;;;5098467;28;20047;-79
2023/07/22 07:24:34;;;;;;;13.38;8.30;;;;;;;;;;5080356;28;20056;-77
2023/07/22 07:27:00;;;;;;;12.57;7.63;;;;;;;;;;5115186;28;20043;-74
2023/07/22 07:29:26;;;;;;;11.80;7.38;;;;;;;;;;5116558;27;20048;-74
2023/07/22 07:31:52;;;;;;;17.30;8.93;;;;;;;;;;5097000;28;20043;-74
2023/07/22 07:34:19;;;;;;;16.38;8.77;;;;;;;;;;5096599;28;20059;-74
2023/07/22 07:36:45;;;;;;;14.40;8.13;;;;;;;;;;5097972;27;20414;-74
2023/07/22 07:39:11;;;;;;;12.95;8.07;;;;;;;;;;5121555;27;20073;-73
2023/07/22 07:41:37;;;;;;;20.00;8.73;;;;;;;;;;5123842;27;20087;-72
2023/07/22 07:44:04;;;;;;;12.05;6.97;;;;;;;;;;5107382;27;20123;-73
2023/07/22 07:46:30;;;;;;;15.13;8.80;;;;;;;;;;5118806;27;20044;-78
2023/07/22 07:48:57;;;;;;;15.35;8.90;;;;;;;;;;5142218;27;20046;-72
2023/07/22 07:51:24;;;;;;;13.45;8.80;;;;;;;;;;5124668;27;20123;-72
2023/07/22 07:53:51;;;;;;;15.25;8.38;;;;;;;;;;5114488;28;20036;-74
2023/07/22 07:56:18;;;;;;;14.70;8.50;;;;;;;;;;5114004;27;20096;-73
2023/07/22 07:58:45;;;;;;;12.75;8.35;;;;;;;;;;5134482;27;20035;-73
2023/07/22 08:01:11;;;;;;;15.57;8.60;;;;;;;;;;5106364;28;20043;-73
2023/07/22 08:03:38;;;;;;;14.43;8.40;;;;;;;;;;5098351;27;20417;-73
2023/07/22 08:06:06;;;;;;;16.70;8.65;;;;;;;;;;5103782;27;20546;-73
2023/07/22 08:08:32;;;;;;;12.45;8.10;;;;;;;;;;5119940;27;20493;-73
2023/07/22 08:11:02;;;;;;;15.10;8.50;;;;;;;;;;5133265;27;20053;-73
2023/07/22 08:13:30;;;;;;;15.10;8.50;;;;;;;;;;5134860;27;20051;-73
2023/07/22 08:15:57;;;;;;;15.45;9.57;;;;;;;;;;5116094;27;20413;-74
2023/07/22 08:18:23;;;;;;;16.08;9.25;;;;;;;;;;5116334;27;20054;-74
2023/07/22 08:20:53;;;;;;;17.25;10.63;;;;;;;;;;5128137;27;20043;-74
2023/07/22 08:23:19;;;;;;;14.10;9.45;;;;;;;;;;5115272;27;20508;-74
2023/07/22 08:25:45;;;;;;;17.58;10.75;;;;;;;;;;5113725;28;20367;-74
2023/07/22 08:28:12;;;;;;;15.68;9.57;;;;;;;;;;5128688;27;20481;-74
2023/07/22 08:30:40;;;;;;;15.52;9.73;;;;;;;;;;5111963;27;20134;-74
2023/07/22 08:33:07;;;;;;;15.60;9.63;;;;;;;;;;5112034;27;20051;-74
2023/07/22 08:35:34;;;;;;;14.20;8.98;;;;;;;;;;5112607;28;20478;-74
2023/07/22 08:38:02;;;;;;;13.90;8.55;;;;;;;;;;5113844;28;20073;-74
2023/07/22 08:40:28;;;;;;;15.35;8.43;;;;;;;;;;5114309;28;20079;-74
2023/07/22 08:42:54;;;;;;;14.10;8.70;;;;;;;;;;5114794;27;20104;-74
2023/07/22 08:45:22;;;;;;;13.98;8.85;;;;;;;;;;5128095;27;20047;-74
2023/07/22 08:47:49;;;;;;;13.13;8.85;;;;;;;;;;5114261;28;20063;-74
2023/07/22 08:50:17;;;;;;;12.02;7.78;;;;;;;;;;5116003;28;20443;-74
2023/07/22 08:52:44;;;;;;;12.98;8.77;;;;;;;;;;5130795;28;20455;-74
2023/07/22 08:55:10;;;;;;;12.25;7.95;;;;;;;;;;5108960;28;20058;-74
2023/07/22 08:57:37;;;;;;;13.68;8.52;;;;;;;;;;5109298;28;20378;-74
2023/07/22 09:00:06;;;;;;;11.52;7.88;;;;;;;;;;5133384;28;20427;-74
2023/07/22 09:02:33;;;;;;;11.95;8.00;;;;;;;;;;5095566;28;20086;-74
2023/07/22 09:04:59;;;;;;;13.73;7.80;;;;;;;;;;5134092;28;20072;-74
2023/07/22 09:07:25;;;;;;;12.63;7.55;;;;;;;;;;5115264;28;20508;-74
2023/07/22 09:09:53;;;;;;;11.95;7.50;;;;;;;;;;5116195;27;20047;-74
2023/07/22 09:12:19;;;;;;;11.40;7.60;;;;;;;;;;5117918;28;20043;-74
2023/07/22 09:14:45;;;;;;;11.52;7.68;;;;;;;;;;5116694;27;20054;-74
2023/07/22 09:17:11;;;;;;;12.85;8.18;;;;;;;;;;5123724;27;20039;-74
2023/07/22 09:19:37;;;;;;;9.35;6.32;;;;;;;;;;5119912;28;20062;-74
2023/07/22 09:22:03;;;;;;;10.70;7.38;;;;;;;;;;5087161;28;20051;-74
2023/07/22 09:24:30;;;;;;;7.93;5.78;;;;;;;;;;5114309;27;20049;-74
2023/07/22 09:27:00;;;;;;;6.85;4.53;;;;;;;;;;5101447;28;20047;-75
2023/07/22 09:29:36;;;;;;;5.25;3.75;;;;;;;;;;5098650;28;20494;-74
2023/07/22 09:32:03;;;;;;;5.05;4.03;;;;;;;;;;5117700;28;20036;-74
2023/07/22 09:34:29;;;;;;;4.95;4.00;;;;;;;;;;5111353;27;20043;-74
2023/07/22 09:36:56;;;;;;;5.15;3.45;;;;;;;;;;5119471;27;20501;-74
2023/07/22 09:39:26;;;;;;;4.45;3.40;;;;;;;;;;5124843;27;20069;-74
2023/07/22 09:41:53;;;;;;;4.72;3.25;;;;;;;;;;5117988;27;20039;-74
2023/07/22 09:44:19;;;;;;;5.15;3.40;;;;;;;;;;5127333;27;20047;-74
2023/07/22 09:46:51;;;;;;;3.63;2.67;;;;;;;;;;5121921;27;20374;-74
2023/07/22 09:49:18;;;;;;;4.07;3.03;;;;;;;;;;5125916;27;20488;-74
2023/07/22 09:51:44;;;;;;;4.55;3.20;;;;;;;;;;5135970;27;20049;-73
2023/07/22 09:54:11;;;;;;;4.63;3.38;;;;;;;;;;5104276;27;20173;-73
2023/07/22 09:56:44;;;;;;;5.45;3.70;;;;;;;;;;5121365;27;20043;-73
2023/07/22 09:59:11;;;;;;;5.65;4.18;;;;;;;;;;5115035;27;20039;-73
2023/07/22 10:01:39;;;;;;;6.50;4.22;;;;;;;;;;5126099;27;20066;-73
2023/07/22 10:04:06;;;;;;;5.03;3.92;;;;;;;;;;5124100;27;20410;-73
2023/07/22 10:06:32;;;;;;;7.30;4.40;;;;;;;;;;5127432;27;20043;-74
2023/07/22 10:09:08;;;;;;;6.28;4.43;;;;;;;;;;5117015;27;20169;-73
2023/07/22 10:11:37;;;;;;;5.90;4.28;;;;;;;;;;5098532;28;20126;-74
2023/07/22 10:14:04;;;;;;;6.00;4.43;;;;;;;;;;5116693;28;20040;-74
2023/07/22 10:16:30;;;;;;;7.82;5.07;;;;;;;;;;5100082;28;20207;-74
2023/07/22 10:18:57;;;;;;;7.10;4.50;;;;;;;;;;5116861;27;20108;-73
2023/07/22 10:21:25;;;;;;;6.03;4.43;;;;;;;;;;5115890;27;20051;-75
2023/07/22 10:23:51;;;;;;;6.22;4.43;;;;;;;;;;5115960;28;20513;-73
2023/07/22 10:26:20;;;;;;;7.70;4.47;;;;;;;;;;5121004;27;20130;-73
2023/07/22 10:28:47;;;;;;;7.80;5.10;;;;;;;;;;5129956;27;20072;-73
2023/07/22 10:31:18;;;;;;;7.20;4.82;;;;;;;;;;5117380;27;20092;-72
2023/07/22 10:33:47;;;;;;;6.80;4.93;;;;;;;;;;5119459;27;20048;-73
2023/07/22 10:36:15;;;;;;;6.93;5.40;;;;;;;;;;5129520;27;20055;-73
2023/07/22 10:38:42;;;;;;;6.63;4.88;;;;;;;;;;5134879;27;20477;-73
2023/07/22 10:41:12;;;;;;;6.32;5.40;;;;;;;;;;5136532;27;20063;-72
2023/07/22 10:43:40;;;;;;;6.63;4.80;;;;;;;;;;5136352;27;20050;-73
2023/07/22 10:46:07;;;;;;;8.23;5.63;;;;;;;;;;5133254;27;20053;-74
2023/07/22 10:48:37;;;;;;;5.75;5.15;;;;;;;;;;5135832;27;20042;-74
2023/07/22 10:51:11;;;;;;;6.93;4.65;;;;;;;;;;5127392;27;20042;-74
2023/07/22 10:53:55;;;;;;;8.23;4.95;;;;;;;;;;5116665;27;20051;-73
2023/07/22 10:56:24;;;;;;;7.53;5.00;;;;;;;;;;5117777;27;20054;-74
2023/07/22 10:58:50;;;;;;;6.80;5.07;;;;;;;;;;5121411;27;20051;-73
2023/07/22 11:01:28;;;;;;;6.72;4.85;;;;;;;;;;5134517;27;20035;-73
2023/07/22 11:04:10;;;;;;;9.43;6.22;;;;;;;;;;5125168;27;20447;-74
2023/07/22 11:06:37;;;;;;;10.98;6.30;;;;;;;;;;5147725;27;20043;-74
2023/07/22 11:09:04;;;;;;;8.85;6.45;;;;;;;;;;5128715;27;20485;-73
2023/07/22 11:11:38;;;;;;;7.22;5.65;;;;;;;;;;5113837;27;20118;-73
2023/07/22 11:14:17;;;;;;;8.65;5.90;;;;;;;;;;5129330;27;20112;-73
2023/07/22 11:16:46;;;;;;;7.85;5.65;;;;;;;;;;5133688;27;20392;-72
2023/07/22 11:19:16;;;;;;;7.22;5.15;;;;;;;;;;5132416;27;20058;-72
2023/07/22 11:21:43;;;;;;;8.18;5.60;;;;;;;;;;5123766;27;20046;-73
2023/07/22 11:24:09;;;;;;;8.52;5.80;;;;;;;;;;5130248;27;20039;-73
2023/07/22 11:26:35;;;;;;;9.65;5.82;;;;;;;;;;5134266;27;20043;-73
2023/07/22 11:29:02;;;;;;;8.57;5.85;;;;;;;;;;5135221;27;20039;-72
2023/07/22 11:31:42;;;;;;;7.65;5.75;;;;;;;;;;5119336;27;20035;-72
2023/07/22 11:34:12;;;;;;;8.15;5.50;;;;;;;;;;5134914;27;20122;-73
2023/07/22 11:36:38;;;;;;;8.13;5.60;;;;;;;;;;5127943;27;20404;-73
2023/07/22 11:39:05;;;;;;;7.63;5.70;;;;;;;;;;5104720;27;20071;-73
2023/07/22 11:41:32;;;;;;;9.20;5.85;;;;;;;;;;5134142;27;20046;-73
2023/07/22 11:43:58;;;;;;;9.27;6.35;;;;;;;;;;5119224;27;20031;-73
2023/07/22 11:46:25;;;;;;;8.02;6.13;;;;;;;;;;5121360;27;20472;-73
2023/07/22 11:48:52;;;;;;;7.68;6.32;;;;;;;;;;5134152;27;20066;-73
2023/07/22 11:51:20;;;;;;;9.32;6.32;;;;;;;;;;5134502;27;20379;-72
2023/07/22 11:53:50;;;;;;;7.43;5.75;;;;;;;;;;5120482;27;20507;-73
2023/07/22 11:56:21;;;;;;;9.90;6.65;;;;;;;;;;5107861;27;20082;-74
2023/07/22 11:58:51;;;;;;;8.52;6.53;;;;;;;;;;5125032;27;20040;-73
2023/07/22 12:01:17;;;;;;;9.25;6.85;;;;;;;;;;5123377;27;20043;-72
2023/07/22 12:03:43;;;;;;;7.75;6.38;;;;;;;;;;5113862;27;20051;-72
2023/07/22 12:06:10;;;;;;;9.27;7.25;;;;;;;;;;5100423;28;20043;-72
2023/07/22 12:08:36;;;;;;;9.30;7.85;;;;;;;;;;5116071;27;20066;-73
2023/07/22 12:11:03;;;;;;;10.63;7.78;;;;;;;;;;5127012;27;20048;-73
2023/07/22 12:13:30;;;;;;;9.52;7.22;;;;;;;;;;5114671;27;20044;-73
2023/07/22 12:16:03;;;;;;;8.00;6.80;;;;;;;;;;5122588;27;20035;-74
2023/07/22 12:18:41;;;;;;;9.43;7.15;;;;;;;;;;5117379;27;20319;-73
2023/07/22 12:21:08;;;;;;;9.00;6.97;;;;;;;;;;5123497;27;20393;-74
2023/07/22 12:23:35;;;;;;;7.40;5.80;;;;;;;;;;5119922;27;20048;-74
2023/07/22 12:26:01;;;;;;;8.13;6.63;;;;;;;;;;5126138;27;20040;-74
2023/07/22 12:28:27;;;;;;;6.47;5.78;;;;;;;;;;5116490;27;20119;-74
2023/07/22 12:30:53;;;;;;;7.22;5.60;;;;;;;;;;5133296;27;20492;-74
2023/07/22 12:33:19;;;;;;;8.02;5.90;;;;;;;;;;5132739;27;20047;-73
2023/07/22 12:35:45;;;;;;;8.73;7.10;;;;;;;;;;5113720;28;20529;-73
2023/07/22 12:38:11;;;;;;;8.23;6.13;;;;;;;;;;5115786;27;20039;-74
2023/07/22 12:40:37;;;;;;;8.82;5.72;;;;;;;;;;5133204;27;20401;-73
2023/07/22 12:43:03;;;;;;;7.20;5.70;;;;;;;;;;5133241;27;20455;-73
2023/07/22 12:45:29;;;;;;;6.72;5.60;;;;;;;;;;5115518;28;20074;-73
2023/07/22 12:47:55;;;;;;;6.40;4.75;;;;;;;;;;5109893;27;20039;-77
2023/07/22 12:50:22;;;;;;;6.78;5.20;;;;;;;;;;5134414;28;20035;-74
2023/07/22 12:52:48;;;;;;;5.85;5.20;;;;;;;;;;5119311;28;20055;-73
2023/07/22 12:55:14;;;;;;;7.68;5.40;;;;;;;;;;5104390;28;20118;-72
2023/07/22 12:57:40;;;;;;;7.25;5.15;;;;;;;;;;5134622;28;20043;-72
2023/07/22 13:00:09;;;;;;;11.75;6.13;;;;;;;;;;5117970;28;20040;-72
2023/07/22 13:02:35;;;;;;;7.95;6.30;;;;;;;;;;5121236;28;20043;-72
2023/07/22 13:05:02;;;;;;;7.72;5.55;;;;;;;;;;5131745;28;20087;-73
2023/07/22 13:07:28;;;;;;;8.10;5.78;;;;;;;;;;5131510;28;20035;-73
2023/07/22 13:09:56;;;;;;;8.85;6.13;;;;;;;;;;5122856;28;20079;-73
2023/07/22 13:12:22;;;;;;;11.27;5.70;;;;;;;;;;5113222;28;20082;-73
2023/07/22 13:14:48;;;;;;;6.75;5.85;;;;;;;;;;5113648;28;20044;-73
2023/07/22 13:17:14;;;;;;;6.80;5.72;;;;;;;;;;5131088;28;20042;-73
2023/07/22 13:19:40;;;;;;;8.38;5.60;;;;;;;;;;5133744;28;20058;-73
2023/07/22 13:22:07;;;;;;;7.57;4.65;;;;;;;;;;5120454;28;20043;-73
2023/07/22 13:24:33;;;;;;;6.82;4.90;;;;;;;;;;5119510;28;20039;-73
2023/07/22 13:26:59;;;;;;;8.77;4.47;;;;;;;;;;5116458;28;20362;-74
2023/07/22 13:29:25;;;;;;;7.03;4.50;;;;;;;;;;5108572;27;20490;-73
2023/07/22 13:31:51;;;;;;;8.60;4.18;;;;;;;;;;5118386;28;20141;-73
2023/07/22 13:34:17;;;;;;;7.55;4.63;;;;;;;;;;5103732;28;20040;-73
2023/07/22 13:36:43;;;;;;;12.20;4.90;;;;;;;;;;5122229;28;20104;-73
2023/07/22 13:39:09;;;;;;;5.70;4.07;;;;;;;;;;5132268;28;20047;-73
2023/07/22 13:41:35;;;;;;;5.05;4.00;;;;;;;;;;5120258;27;20515;-73
2023/07/22 13:44:02;;;;;;;6.20;4.03;;;;;;;;;;5095617;28;20100;-74
2023/07/22 13:46:28;;;;;;;7.78;4.18;;;;;;;;;;5096166;28;20089;-74
2023/07/22 13:48:54;;;;;;;6.47;4.28;;;;;;;;;;5127338;28;20039;-74
2023/07/22 13:51:20;;;;;;;7.00;4.45;;;;;;;;;;5125422;28;20104;-73
2023/07/22 13:53:46;;;;;;;5.72;4.20;;;;;;;;;;5114400;28;20047;-73
2023/07/22 13:56:12;;;;;;;11.43;5.65;;;;;;;;;;5107877;27;20130;-73
2023/07/22 13:58:38;;;;;;;7.03;5.00;;;;;;;;;;5117589;27;20047;-74
2023/07/22 14:01:04;;;;;;;9.63;5.85;;;;;;;;;;5128898;27;20471;-74
2023/07/22 14:03:31;;;;;;;10.52;5.88;;;;;;;;;;5114937;27;20427;-77
2023/07/22 14:05:58;;;;;;;8.93;5.78;;;;;;;;;;5101780;27;20051;-74
2023/07/22 14:08:24;;;;;;;9.43;5.43;;;;;;;;;;5101416;27;20133;-74
2023/07/22 14:10:50;;;;;;;9.73;5.35;;;;;;;;;;5118898;27;20530;-74
2023/07/22 14:13:16;;;;;;;7.00;5.40;;;;;;;;;;5109829;27;20390;-74
2023/07/22 14:15:42;;;;;;;7.38;5.43;;;;;;;;;;5126592;27;20126;-74
2023/07/22 14:18:08;;;;;;;10.13;6.18;;;;;;;;;;5121044;27;20073;-74
2023/07/22 14:20:35;;;;;;;9.35;5.40;;;;;;;;;;5132469;27;20039;-74
2023/07/22 14:23:02;;;;;;;10.43;5.45;;;;;;;;;;5136621;27;20047;-73
2023/07/22 14:25:28;;;;;;;10.25;5.80;;;;;;;;;;5142721;27;20046;-73
2023/07/22 14:27:54;;;;;;;8.48;6.00;;;;;;;;;;5137692;27;20044;-73
2023/07/22 14:30:20;;;;;;;10.10;6.65;;;;;;;;;;5117452;27;20054;-74
2023/07/22 14:32:47;;;;;;;10.30;6.53;;;;;;;;;;5126821;27;20049;-73
2023/07/22 14:35:13;;;;;;;8.32;5.68;;;;;;;;;;5137978;27;20035;-74
2023/07/22 14:37:39;;;;;;;11.10;6.40;;;;;;;;;;5136771;27;20043;-74